createdAt,value
2019-04-04T00:02:29.967Z,9.10
2019-04-04T00:05:02.419Z,7.90
2019-04-04T00:07:42.603Z,7.73
2019-04-04T00:10:15.410Z,7.97
2019-04-04T00:12:56.407Z,7.50
2019-04-04T00:15:28.555Z,8.53
2019-04-04T00:18:01.246Z,7.70
2019-04-04T00:20:33.500Z,8.30
2019-04-04T00:23:16.289Z,8.40
2019-04-04T00:25:48.397Z,7.97
2019-04-04T00:28:24.269Z,7.83
2019-04-04T00:30:56.110Z,7.47
2019-04-04T00:33:37.133Z,7.50
2019-04-04T00:36:09.053Z,8.10
2019-04-04T00:38:44.650Z,7.87
2019-04-04T00:41:16.376Z,7.10
2019-04-04T00:43:52.421Z,7.00
2019-04-04T00:46:24.195Z,7.70
2019-04-04T00:49:06.480Z,7.40
2019-04-04T00:51:39.146Z,8.40
2019-04-04T00:54:14.653Z,7.33
2019-04-04T00:56:46.918Z,7.03
2019-04-04T00:59:27.243Z,7.17
2019-04-04T01:01:59.036Z,6.60
2019-04-04T01:04:33.747Z,6.97
2019-04-04T01:07:06.014Z,7.00
2019-04-04T01:09:45.871Z,7.50
2019-04-04T01:12:21.416Z,7.27
2019-04-04T01:14:58.131Z,7.37
2019-04-04T01:17:30.128Z,6.70
2019-04-04T01:20:12.020Z,7.23
2019-04-04T01:22:43.700Z,6.70
2019-04-04T01:25:15.562Z,7.80
2019-04-04T01:27:47.288Z,7.70
2019-04-04T01:30:29.497Z,7.30
2019-04-04T01:33:03.564Z,6.93
2019-04-04T01:35:34.918Z,6.90
2019-04-04T01:38:06.534Z,7.10
2019-04-04T01:40:38.169Z,7.80
2019-04-04T01:43:09.966Z,7.10
2019-04-04T01:45:43.855Z,7.50
2019-04-04T01:48:18.275Z,7.70
2019-04-04T01:50:48.859Z,7.03
2019-04-04T01:53:21.336Z,6.83
2019-04-04T01:55:53.900Z,7.87
2019-04-04T01:58:26.441Z,6.97
2019-04-04T02:00:58.267Z,7.93
2019-04-04T02:03:29.957Z,7.77
2019-04-04T02:06:01.675Z,7.13
2019-04-04T02:08:33.595Z,7.17
2019-04-04T02:11:05.905Z,7.30
2019-04-04T02:13:38.933Z,7.60
2019-04-04T02:16:12.309Z,8.30
2019-04-04T02:18:44.145Z,7.60
2019-04-04T02:21:15.923Z,7.30
2019-04-04T02:23:48.166Z,7.80
2019-04-04T02:26:19.911Z,7.77
2019-04-04T02:28:51.603Z,7.80
2019-04-04T02:31:23.882Z,7.87
2019-04-04T02:33:56.161Z,7.73
2019-04-04T02:36:28.039Z,7.77
2019-04-04T02:39:15.324Z,8.17
2019-04-04T02:41:49.030Z,7.83
2019-04-04T02:44:21.383Z,7.23
2019-04-04T02:46:53.819Z,7.13
2019-04-04T02:49:27.904Z,7.63
2019-04-04T02:51:58.931Z,7.43
2019-04-04T02:54:30.646Z,7.83
2019-04-04T02:57:02.298Z,7.83
2019-04-04T02:59:33.830Z,7.83
2019-04-04T03:02:06.130Z,7.70
2019-04-04T03:04:38.015Z,7.73
2019-04-04T03:07:10.645Z,8.10
2019-04-04T03:09:43.697Z,7.10
2019-04-04T03:12:16.170Z,6.90
2019-04-04T03:14:50.569Z,8.43
2019-04-04T03:17:21.515Z,7.57
2019-04-04T03:19:53.300Z,7.87
2019-04-04T03:22:27.476Z,7.90
2019-04-04T03:24:58.658Z,7.77
2019-04-04T03:27:30.382Z,7.33
2019-04-04T03:30:02.754Z,6.87
2019-04-04T03:32:39.174Z,6.60
2019-04-04T03:35:12.282Z,7.13
2019-04-04T03:37:56.011Z,6.83
2019-04-04T03:40:27.730Z,7.27
2019-04-04T03:42:59.449Z,7.13
2019-04-04T03:45:31.362Z,6.87
2019-04-04T03:48:07.481Z,7.07
2019-04-04T03:50:39.051Z,7.20
2019-04-04T03:53:23.958Z,7.13
2019-04-04T03:55:59.951Z,6.40
2019-04-04T03:58:33.033Z,7.27
2019-04-04T04:01:04.711Z,6.57
2019-04-04T04:03:45.346Z,6.77
2019-04-04T04:06:17.983Z,6.43
2019-04-04T04:08:55.544Z,7.00
2019-04-04T04:11:27.180Z,7.30
2019-04-04T04:14:02.101Z,6.80
2019-04-04T04:16:36.000Z,7.47
2019-04-04T04:19:19.693Z,6.30
2019-04-04T04:21:51.244Z,6.00
2019-04-04T04:24:23.170Z,5.97
2019-04-04T04:26:54.856Z,6.10
2019-04-04T04:29:30.773Z,6.33
2019-04-04T04:32:02.502Z,6.23
2019-04-04T04:34:51.811Z,6.53
2019-04-04T04:37:23.321Z,5.83
2019-04-04T04:39:55.235Z,5.70
2019-04-04T04:42:27.559Z,6.00
2019-04-04T04:45:12.168Z,5.70
2019-04-04T04:47:44.640Z,6.40
2019-04-04T04:50:16.426Z,6.17
2019-04-04T04:52:48.411Z,6.27
2019-04-04T04:55:28.151Z,6.27
2019-04-04T04:57:59.864Z,5.50
2019-04-04T05:00:34.534Z,5.40
2019-04-04T05:03:06.477Z,6.03
2019-04-04T05:05:45.774Z,5.53
2019-04-04T05:08:18.150Z,5.63
2019-04-04T05:10:56.138Z,5.57
2019-04-04T05:13:28.843Z,5.77
2019-04-04T05:16:08.987Z,5.77
2019-04-04T05:18:41.279Z,5.37
2019-04-04T05:21:24.844Z,5.40
2019-04-04T05:23:53.001Z,5.43
2019-04-04T05:26:28.788Z,6.10
2019-04-04T05:29:00.503Z,5.30
2019-04-04T05:31:41.422Z,5.10
2019-04-04T05:34:14.315Z,5.13
2019-04-04T05:36:49.343Z,5.10
2019-04-04T05:39:21.196Z,5.13
2019-04-04T05:42:00.481Z,5.37
2019-04-04T05:44:34.557Z,5.37
2019-04-04T05:47:13.720Z,5.30
2019-04-04T05:49:45.546Z,5.27
2019-04-04T05:52:21.486Z,5.57
2019-04-04T05:54:53.488Z,5.13
2019-04-04T05:57:27.933Z,5.43
2019-04-04T06:00:18.660Z,5.90
2019-04-04T06:02:50.659Z,5.60
2019-04-04T06:05:22.624Z,6.10
2019-04-04T06:07:55.171Z,5.83
2019-04-04T06:10:26.880Z,5.93
2019-04-04T06:12:58.732Z,5.50
2019-04-04T06:15:32.180Z,4.80
2019-04-04T06:18:15.293Z,5.07
2019-04-04T06:20:48.592Z,5.37
2019-04-04T06:23:25.100Z,4.87
2019-04-04T06:25:58.074Z,4.73
2019-04-04T06:28:34.986Z,5.43
2019-04-04T06:31:07.012Z,4.87
2019-04-04T06:33:46.554Z,4.80
2019-04-04T06:36:19.188Z,4.60
2019-04-04T06:38:53.963Z,4.43
2019-04-04T06:41:28.211Z,4.70
2019-04-04T06:44:02.899Z,4.70
2019-04-04T06:46:35.146Z,5.67
2019-04-04T06:49:15.619Z,4.87
2019-04-04T06:51:47.667Z,5.00
2019-04-04T06:54:26.466Z,5.20
2019-04-04T06:56:59.255Z,4.43
2019-04-04T06:59:31.462Z,4.67
2019-04-04T07:02:10.132Z,4.43
2019-04-04T07:04:45.112Z,4.40
2019-04-04T07:07:16.985Z,4.40
2019-04-04T07:09:56.323Z,4.57
2019-04-04T07:12:28.738Z,4.67
2019-04-04T07:15:11.142Z,4.80
2019-04-04T07:17:41.867Z,4.50
2019-04-04T07:20:17.562Z,4.60
2019-04-04T07:22:55.628Z,5.10
2019-04-04T07:25:27.704Z,4.60
2019-04-04T07:28:00.813Z,4.77
2019-04-04T07:30:36.077Z,5.00
2019-04-04T07:33:08.051Z,4.60
2019-04-04T07:35:49.571Z,4.90
2019-04-04T07:38:22.089Z,4.73
2019-04-04T07:41:00.991Z,4.93
2019-04-04T07:43:32.826Z,4.57
2019-04-04T07:46:16.362Z,4.57
2019-04-04T07:48:42.739Z,4.57
2019-04-04T07:51:23.965Z,4.47
2019-04-04T07:53:55.887Z,4.90
2019-04-04T07:56:27.541Z,4.83
2019-04-04T07:58:59.341Z,5.50
2019-04-04T08:01:51.254Z,4.63
2019-04-04T08:04:22.935Z,4.40
2019-04-04T08:06:55.129Z,4.50
2019-04-04T08:09:27.859Z,4.60
2019-04-04T08:11:59.917Z,4.30
2019-04-04T08:14:32.513Z,4.77
2019-04-04T08:17:12.841Z,4.20
2019-04-04T08:19:45.160Z,4.20
2019-04-04T08:22:28.742Z,4.53
2019-04-04T08:24:58.268Z,4.23
2019-04-04T08:27:29.975Z,4.70
2019-04-04T08:30:01.871Z,3.90
2019-04-04T08:32:40.143Z,4.40
2019-04-04T08:35:12.626Z,4.13
2019-04-04T08:37:54.177Z,4.20
2019-04-04T08:40:28.103Z,4.20
2019-04-04T08:43:00.082Z,4.03
2019-04-04T08:45:31.988Z,4.10
2019-04-04T08:48:07.831Z,4.37
2019-04-04T08:50:39.588Z,4.43
2019-04-04T08:53:19.152Z,4.67
2019-04-04T08:55:51.050Z,4.47
2019-04-04T08:58:40.669Z,4.67
2019-04-04T09:01:12.419Z,4.63
2019-04-04T09:03:47.012Z,4.20
2019-04-04T09:06:19.556Z,4.93
2019-04-04T09:08:51.846Z,4.57
2019-04-04T09:11:24.270Z,4.63
2019-04-04T09:14:00.275Z,4.83
2019-04-04T09:16:33.446Z,4.70
2019-04-04T09:19:23.219Z,4.87
2019-04-04T09:21:55.396Z,5.53
2019-04-04T09:24:27.750Z,6.17
2019-04-04T09:27:00.091Z,6.53
2019-04-04T09:29:38.194Z,6.17
2019-04-04T09:32:11.211Z,6.13
2019-04-04T09:34:51.147Z,5.70
2019-04-04T09:37:23.660Z,6.13
2019-04-04T09:39:56.486Z,6.00
2019-04-04T09:42:28.451Z,5.70
2019-04-04T09:45:12.525Z,5.37
2019-04-04T09:47:45.713Z,5.63
2019-04-04T09:50:17.704Z,5.53
2019-04-04T09:52:49.782Z,6.13
2019-04-04T09:55:31.813Z,7.77
2019-04-04T09:58:04.409Z,7.57
2019-04-04T10:00:37.529Z,7.97
2019-04-04T10:03:09.577Z,9.53
2019-04-04T10:05:48.470Z,8.60
2019-04-04T10:08:20.731Z,8.87
2019-04-04T10:10:59.672Z,9.57
2019-04-04T10:13:31.452Z,9.17
2019-04-04T10:16:06.294Z,8.53
2019-04-04T10:18:38.048Z,8.60
2019-04-04T10:21:19.617Z,9.13
2019-04-04T10:23:52.382Z,9.97
2019-04-04T10:26:33.433Z,7.50
2019-04-04T10:29:05.160Z,8.13
2019-04-04T10:31:41.578Z,7.37
2019-04-04T10:34:14.605Z,7.53
2019-04-04T10:36:52.708Z,7.63
2019-04-04T10:39:29.043Z,8.67
2019-04-04T10:41:58.359Z,8.03
2019-04-04T10:44:30.664Z,8.23
2019-04-04T10:47:12.834Z,10.97
2019-04-04T10:49:45.055Z,10.57
2019-04-04T10:52:24.686Z,10.40
2019-04-04T10:55:03.097Z,10.43
2019-04-04T10:57:35.807Z,10.97
2019-04-04T11:00:10.819Z,9.00
2019-04-04T11:02:46.872Z,9.40
2019-04-04T11:05:21.327Z,8.83
2019-04-04T11:07:56.638Z,10.73
2019-04-04T11:10:27.488Z,8.27
2019-04-04T11:13:03.713Z,11.97
2019-04-04T11:15:35.550Z,9.83
2019-04-04T11:18:10.408Z,9.33
2019-04-04T11:20:42.905Z,8.87
2019-04-04T11:23:23.011Z,8.83
2019-04-04T11:25:54.907Z,9.90
2019-04-04T11:28:31.126Z,9.77
2019-04-04T11:31:02.994Z,9.00
2019-04-04T11:33:52.535Z,9.27
2019-04-04T11:36:24.157Z,11.43
2019-04-04T11:38:56.773Z,11.20
2019-04-04T11:41:28.468Z,9.83
2019-04-04T11:44:08.733Z,10.23
2019-04-04T11:46:42.168Z,10.40
2019-04-04T11:49:13.884Z,9.20
2019-04-04T11:51:45.814Z,6.73
2019-04-04T11:54:22.081Z,5.80
2019-04-04T11:56:54.142Z,5.70
2019-04-04T11:59:44.081Z,4.90
2019-04-04T12:02:16.751Z,5.57
2019-04-04T12:04:48.705Z,5.80
2019-04-04T12:07:20.782Z,5.93
2019-04-04T12:09:52.629Z,6.70
2019-04-04T12:12:24.532Z,7.13
2019-04-04T12:15:13.971Z,6.90
2019-04-04T12:17:46.661Z,6.77
2019-04-04T12:20:19.491Z,7.07
2019-04-04T12:22:53.480Z,6.17
2019-04-04T12:25:28.046Z,7.27
2019-04-04T12:28:01.627Z,7.20
2019-04-04T12:30:37.688Z,6.80
2019-04-04T12:33:09.985Z,7.30
2019-04-04T12:35:45.201Z,6.57
2019-04-04T12:38:18.387Z,7.37
2019-04-04T12:41:00.044Z,6.47
2019-04-04T12:43:32.353Z,7.40
2019-04-04T12:46:12.672Z,6.30
2019-04-04T12:48:46.084Z,7.07
2019-04-04T12:51:17.955Z,6.23
2019-04-04T12:53:50.376Z,6.10
2019-04-04T12:56:30.266Z,6.50
2019-04-04T12:59:02.682Z,7.10
2019-04-04T13:01:38.434Z,8.23
2019-04-04T13:04:10.299Z,8.97
2019-04-04T13:06:52.046Z,8.57
2019-04-04T13:09:24.398Z,9.37
2019-04-04T13:11:56.948Z,11.27
2019-04-04T13:14:30.358Z,9.87
2019-04-04T13:17:15.409Z,10.73
2019-04-04T13:19:47.417Z,10.70
2019-04-04T13:22:21.966Z,11.00
2019-04-04T13:24:54.295Z,11.07
2019-04-04T13:27:36.046Z,11.40
2019-04-04T13:30:11.275Z,10.63
2019-04-04T13:32:48.700Z,10.53
2019-04-04T13:35:20.893Z,10.30
2019-04-04T13:37:54.046Z,10.77
2019-04-04T13:40:28.934Z,10.20
2019-04-04T13:43:01.189Z,7.60
2019-04-04T13:45:33.844Z,8.60
2019-04-04T13:48:06.493Z,8.13
2019-04-04T13:50:38.441Z,8.53
2019-04-04T13:53:10.563Z,7.53
2019-04-04T13:55:42.810Z,7.17
2019-04-04T13:58:17.451Z,8.87
2019-04-04T14:00:49.450Z,8.60
2019-04-04T14:03:21.711Z,7.77
2019-04-04T14:05:54.038Z,7.03
2019-04-04T14:08:26.705Z,7.43
2019-04-04T14:10:58.844Z,5.80
2019-04-04T14:13:31.411Z,5.97
2019-04-04T14:16:03.874Z,5.20
2019-04-04T14:18:39.752Z,5.10
2019-04-04T14:21:09.842Z,3.83
2019-04-04T14:23:45.188Z,4.67
2019-04-04T14:26:16.086Z,4.53
2019-04-04T14:28:48.944Z,5.83
2019-04-04T14:31:21.083Z,4.20
2019-04-04T14:33:53.826Z,6.20
2019-04-04T14:36:30.412Z,4.00
2019-04-04T14:39:02.339Z,5.10
2019-04-04T14:41:53.368Z,3.77
2019-04-04T14:44:25.480Z,3.90
2019-04-04T14:47:00.770Z,3.90
2019-04-04T14:49:33.779Z,3.10
2019-04-04T14:52:09.216Z,3.37
2019-04-04T14:54:41.761Z,3.50
2019-04-04T14:57:13.951Z,2.60
2019-04-04T14:59:46.283Z,2.83
2019-04-04T15:02:28.276Z,3.20
2019-04-04T15:05:01.870Z,2.33
2019-04-04T15:07:40.412Z,2.67
2019-04-04T15:10:13.321Z,3.20
2019-04-04T15:12:48.200Z,3.00
2019-04-04T15:15:21.079Z,2.60
2019-04-04T15:17:59.520Z,2.73
2019-04-04T15:20:31.354Z,5.47
2019-04-04T15:23:07.624Z,2.80
2019-04-04T15:25:40.034Z,3.37
2019-04-04T15:28:17.736Z,3.17
2019-04-04T15:30:50.226Z,3.10
2019-04-04T15:33:22.322Z,3.07
2019-04-04T15:35:54.630Z,2.10
2019-04-04T15:38:26.786Z,2.97
2019-04-04T15:40:59.594Z,3.40
2019-04-04T15:43:32.370Z,5.90
2019-04-04T15:46:04.672Z,5.13
2019-04-04T15:48:37.332Z,4.20
2019-04-04T15:51:09.642Z,10.80
2019-04-04T15:53:42.790Z,9.83
2019-04-04T15:56:15.690Z,5.00
2019-04-04T15:58:47.806Z,6.03
2019-04-04T16:01:20.328Z,4.20
2019-04-04T16:03:52.647Z,4.00
2019-04-04T16:06:25.106Z,5.33
2019-04-04T16:08:59.428Z,4.07
2019-04-04T16:11:31.832Z,3.27
2019-04-04T16:14:05.837Z,3.23
2019-04-04T16:16:40.402Z,4.20
2019-04-04T16:19:13.254Z,5.23
2019-04-04T16:21:46.335Z,4.50
2019-04-04T16:24:18.391Z,3.57
2019-04-04T16:26:50.562Z,4.20
2019-04-04T16:29:23.084Z,4.10
2019-04-04T16:31:55.666Z,4.47
2019-04-04T16:34:28.196Z,5.47
2019-04-04T16:37:00.871Z,4.73
2019-04-04T16:39:35.358Z,5.07
2019-04-04T16:42:06.911Z,4.80
2019-04-04T16:44:40.292Z,5.40
2019-04-04T16:47:13.038Z,4.10
2019-04-04T16:49:46.461Z,2.90
2019-04-04T16:52:19.202Z,3.10
2019-04-04T16:54:53.574Z,3.30
2019-04-04T16:57:26.504Z,3.03
2019-04-04T16:59:58.825Z,3.00
2019-04-04T17:02:30.884Z,4.03
2019-04-04T17:05:03.435Z,3.47
2019-04-04T17:07:35.889Z,5.07
2019-04-04T17:10:10.144Z,3.30
2019-04-04T17:12:42.815Z,4.23
2019-04-04T17:15:15.786Z,3.10
2019-04-04T17:17:48.899Z,5.30
2019-04-04T17:20:21.339Z,4.77
2019-04-04T17:22:53.245Z,3.20
2019-04-04T17:25:26.305Z,3.40
2019-04-04T17:27:59.891Z,3.30
2019-04-04T17:30:32.340Z,3.97
2019-04-04T17:33:04.898Z,4.40
2019-04-04T17:35:37.499Z,5.33
2019-04-04T17:38:10.067Z,5.53
2019-04-04T17:40:42.505Z,0.40
2019-04-04T17:43:15.113Z,0.33
2019-04-04T17:45:49.380Z,0.77
2019-04-04T17:48:22.371Z,0.80
2019-04-04T17:50:55.132Z,0.70
2019-04-04T17:53:27.535Z,0.77
2019-04-04T17:56:08.567Z,0.37
2019-04-04T17:58:40.740Z,0.93
2019-04-04T18:01:16.002Z,0.40
2019-04-04T18:03:48.075Z,0.60
2019-04-04T18:06:20.064Z,1.60
2019-04-04T18:08:52.726Z,1.00
2019-04-04T18:11:33.168Z,1.00
2019-04-04T18:14:05.355Z,1.20
2019-04-04T18:16:48.587Z,1.00
2019-04-04T18:19:21.302Z,1.30
2019-04-04T18:21:56.772Z,1.60
2019-04-04T18:24:29.943Z,0.90
2019-04-04T18:27:05.874Z,0.90
2019-04-04T18:29:39.233Z,0.40
2019-04-04T18:32:21.485Z,0.50
2019-04-04T18:34:59.536Z,0.47
2019-04-04T18:37:32.274Z,0.50
2019-04-04T18:40:05.505Z,0.90
2019-04-04T18:42:38.128Z,0.43
2019-04-04T18:45:11.544Z,0.50
2019-04-04T18:47:44.137Z,0.53
2019-04-04T18:50:16.610Z,0.30
2019-04-04T18:52:53.310Z,0.30
2019-04-04T18:55:25.696Z,0.20
2019-04-04T18:58:04.419Z,0.23
2019-04-04T19:00:39.529Z,0.43
2019-04-04T19:03:22.428Z,1.10
2019-04-04T19:05:55.722Z,0.60
2019-04-04T19:08:28.013Z,0.80
2019-04-04T19:11:01.943Z,0.60
2019-04-04T19:13:44.122Z,0.30
2019-04-04T19:16:09.933Z,0.53
2019-04-04T19:18:49.617Z,0.78
2019-04-04T19:21:22.937Z,2.23
2019-04-04T19:24:02.817Z,0.55
2019-04-04T19:26:34.832Z,1.15
2019-04-04T19:29:07.721Z,3.30
2019-04-04T19:31:39.788Z,1.15
2019-04-04T19:34:21.240Z,1.30
2019-04-04T19:36:55.043Z,0.90
2019-04-04T19:39:35.155Z,1.02
2019-04-04T19:42:08.267Z,0.70
2019-04-04T19:44:53.184Z,0.70
2019-04-04T19:47:18.267Z,0.60
2019-04-04T19:49:50.865Z,0.40
2019-04-04T19:52:23.053Z,0.40
2019-04-04T19:55:02.738Z,0.50
2019-04-04T19:57:35.637Z,0.47
2019-04-04T20:00:09.971Z,0.33
2019-04-04T20:02:44.002Z,0.80
2019-04-04T20:05:24.185Z,0.50
2019-04-04T20:07:58.094Z,0.88
2019-04-04T20:10:30.494Z,1.10
2019-04-04T20:13:02.582Z,1.10
2019-04-04T20:15:43.135Z,0.68
2019-04-04T20:18:15.912Z,0.82
2019-04-04T20:20:52.121Z,0.70
2019-04-04T20:23:24.562Z,0.90
2019-04-04T20:25:59.438Z,0.60
2019-04-04T20:28:31.740Z,0.70
2019-04-04T20:31:12.885Z,0.60
2019-04-04T20:33:45.971Z,1.27
2019-04-04T20:36:24.332Z,1.50
2019-04-04T20:38:56.609Z,1.22
2019-04-04T20:41:32.913Z,1.10
2019-04-04T20:44:06.716Z,0.70
2019-04-04T20:46:41.996Z,1.37
2019-04-04T20:49:14.191Z,0.70
2019-04-04T20:52:00.746Z,0.62
2019-04-04T20:54:33.048Z,1.10
2019-04-04T20:57:05.716Z,0.68
2019-04-04T20:59:38.093Z,0.60
2019-04-04T21:02:19.535Z,0.72
2019-04-04T21:04:54.201Z,0.60
2019-04-04T21:07:26.121Z,0.90
2019-04-04T21:10:00.735Z,1.37
2019-04-04T21:12:36.038Z,1.50
2019-04-04T21:15:09.300Z,1.20
2019-04-04T21:17:48.351Z,1.03
2019-04-04T21:20:20.777Z,1.00
2019-04-04T21:22:58.582Z,1.00
2019-04-04T21:25:31.055Z,1.00
2019-04-04T21:28:10.537Z,0.70
2019-04-04T21:30:42.981Z,1.00
2019-04-04T21:33:15.102Z,1.17
2019-04-04T21:35:47.490Z,1.30
2019-04-04T21:38:28.755Z,1.43
2019-04-04T21:41:00.560Z,1.10
2019-04-04T21:43:39.523Z,1.20
2019-04-04T21:46:11.847Z,1.60
2019-04-04T21:48:46.816Z,1.12
2019-04-04T21:51:19.246Z,1.03
2019-04-04T21:53:58.578Z,1.47
2019-04-04T21:56:33.720Z,1.10
2019-04-04T21:59:11.892Z,0.87
2019-04-04T22:01:44.288Z,1.50
2019-04-04T22:04:16.419Z,1.80
2019-04-04T22:06:48.849Z,1.37
2019-04-04T22:09:27.217Z,1.80
2019-04-04T22:11:59.949Z,1.10
2019-04-04T22:14:40.380Z,1.10
2019-04-04T22:17:12.407Z,1.20
2019-04-04T22:19:47.549Z,1.15
2019-04-04T22:22:19.751Z,1.40
2019-04-04T22:24:57.600Z,0.90
2019-04-04T22:27:29.424Z,1.00
2019-04-04T22:30:06.015Z,0.83
2019-04-04T22:32:38.415Z,0.90
2019-04-04T22:35:23.156Z,1.07
2019-04-04T22:37:54.919Z,0.95
2019-04-04T22:40:33.011Z,1.10
2019-04-04T22:43:04.805Z,1.50
2019-04-04T22:45:39.822Z,1.90
2019-04-04T22:48:11.754Z,1.77
2019-04-04T22:50:57.095Z,1.90
2019-04-04T22:53:28.881Z,1.50
2019-04-04T22:56:04.132Z,1.98
2019-04-04T22:58:36.098Z,1.70
2019-04-04T23:01:10.706Z,1.85
2019-04-04T23:03:42.953Z,1.60
2019-04-04T23:06:14.756Z,1.67
2019-04-04T23:08:46.466Z,1.72
2019-04-04T23:11:18.423Z,2.70
2019-04-04T23:13:50.083Z,2.22
2019-04-04T23:16:21.899Z,2.85
2019-04-04T23:18:53.746Z,3.55
2019-04-04T23:21:25.484Z,4.30
2019-04-04T23:23:59.090Z,4.58
2019-04-04T23:26:30.866Z,4.35
2019-04-04T23:29:02.791Z,5.03
2019-04-04T23:31:34.736Z,3.62
2019-04-04T23:34:07.570Z,11.83
2019-04-04T23:36:39.646Z,6.00
2019-04-04T23:39:11.806Z,5.30
2019-04-04T23:41:44.413Z,5.55
2019-04-04T23:44:16.390Z,7.55
2019-04-04T23:46:51.953Z,7.85
2019-04-04T23:49:23.796Z,6.67
2019-04-04T23:52:03.217Z,6.15
2019-04-04T23:54:34.922Z,7.85
2019-04-04T23:57:07.862Z,8.90
2019-04-04T23:59:39.743Z,8.88
